sensor_id;sensor_type;location;lat;lon;timestamp;P1;durP1;ratioP1;P2;durP2;ratioP2
17890;SDS011;9071;48.220;14.480;2022-09-13T00:03:11;22.57;;;13.93;;
17890;SDS011;9071;48.220;14.480;2022-09-13T00:08:13;21.17;;;14.07;;
17890;SDS011;9071;48.220;14.480;2022-09-13T00:13:16;22.60;;;14.57;;
17890;SDS011;9071;48.220;14.480;2022-09-13T00:18:19;20.00;;;13.67;;
17890;SDS011;9071;48.220;14.480;2022-09-13T00:23:22;22.10;;;14.20;;
17890;SDS011;9071;48.220;14.480;2022-09-13T00:28:24;21.57;;;13.80;;
17890;SDS011;9071;48.220;14.480;2022-09-13T00:33:27;18.80;;;13.77;;
17890;SDS011;9071;48.220;14.480;2022-09-13T00:38:29;19.00;;;13.10;;
17890;SDS011;9071;48.220;14.480;2022-09-13T00:43:42;17.10;;;12.13;;
17890;SDS011;9071;48.220;14.480;2022-09-13T00:48:47;18.63;;;12.33;;
17890;SDS011;9071;48.220;14.480;2022-09-13T00:53:53;19.07;;;12.83;;
17890;SDS011;9071;48.220;14.480;2022-09-13T00:58:59;20.07;;;12.73;;
17890;SDS011;9071;48.220;14.480;2022-09-13T01:04:06;17.67;;;12.23;;
17890;SDS011;9071;48.220;14.480;2022-09-13T01:09:09;17.30;;;12.10;;
17890;SDS011;9071;48.220;14.480;2022-09-13T01:14:12;16.83;;;12.00;;
17890;SDS011;9071;48.220;14.480;2022-09-13T01:19:18;18.63;;;12.43;;
17890;SDS011;9071;48.220;14.480;2022-09-13T01:30:09;21.53;;;13.33;;
17890;SDS011;9071;48.220;14.480;2022-09-13T01:35:21;24.40;;;14.47;;
17890;SDS011;9071;48.220;14.480;2022-09-13T01:40:34;23.13;;;15.90;;
17890;SDS011;9071;48.220;14.480;2022-09-13T01:45:52;21.07;;;14.43;;
17890;SDS011;9071;48.220;14.480;2022-09-13T01:51:04;18.63;;;13.23;;
17890;SDS011;9071;48.220;14.480;2022-09-13T01:56:08;19.87;;;12.47;;
17890;SDS011;9071;48.220;14.480;2022-09-13T02:01:14;22.00;;;12.30;;
17890;SDS011;9071;48.220;14.480;2022-09-13T02:06:19;18.03;;;12.37;;
17890;SDS011;9071;48.220;14.480;2022-09-13T02:11:24;21.30;;;12.83;;
17890;SDS011;9071;48.220;14.480;2022-09-13T02:16:29;16.77;;;12.03;;
17890;SDS011;9071;48.220;14.480;2022-09-13T02:21:35;17.47;;;12.40;;
17890;SDS011;9071;48.220;14.480;2022-09-13T02:26:40;19.03;;;13.13;;
17890;SDS011;9071;48.220;14.480;2022-09-13T02:31:48;15.67;;;11.33;;
17890;SDS011;9071;48.220;14.480;2022-09-13T02:36:55;17.27;;;11.30;;
17890;SDS011;9071;48.220;14.480;2022-09-13T02:42:01;17.13;;;11.93;;
17890;SDS011;9071;48.220;14.480;2022-09-13T02:47:10;23.80;;;14.27;;
17890;SDS011;9071;48.220;14.480;2022-09-13T02:52:24;20.27;;;13.67;;
17890;SDS011;9071;48.220;14.480;2022-09-13T02:57:35;17.63;;;12.40;;
17890;SDS011;9071;48.220;14.480;2022-09-13T03:02:42;24.20;;;13.70;;
17890;SDS011;9071;48.220;14.480;2022-09-13T03:07:47;24.47;;;14.43;;
17890;SDS011;9071;48.220;14.480;2022-09-13T03:18:26;17.80;;;12.40;;
17890;SDS011;9071;48.220;14.480;2022-09-13T03:23:44;16.50;;;11.10;;
17890;SDS011;9071;48.220;14.480;2022-09-13T03:29:03;16.10;;;10.70;;
17890;SDS011;9071;48.220;14.480;2022-09-13T03:34:14;13.73;;;10.17;;
17890;SDS011;9071;48.220;14.480;2022-09-13T03:39:23;14.47;;;11.17;;
17890;SDS011;9071;48.220;14.480;2022-09-13T03:44:33;17.43;;;10.67;;
17890;SDS011;9071;48.220;14.480;2022-09-13T03:49:39;15.93;;;11.00;;
17890;SDS011;9071;48.220;14.480;2022-09-13T03:54:42;13.40;;;9.37;;
17890;SDS011;9071;48.220;14.480;2022-09-13T03:59:44;15.90;;;10.03;;
17890;SDS011;9071;48.220;14.480;2022-09-13T04:04:50;15.00;;;10.37;;
17890;SDS011;9071;48.220;14.480;2022-09-13T04:09:52;13.77;;;9.63;;
17890;SDS011;9071;48.220;14.480;2022-09-13T04:14:59;17.63;;;10.97;;
17890;SDS011;9071;48.220;14.480;2022-09-13T04:20:03;14.73;;;10.60;;
17890;SDS011;9071;48.220;14.480;2022-09-13T04:25:06;15.67;;;10.40;;
17890;SDS011;9071;48.220;14.480;2022-09-13T04:30:09;18.47;;;11.73;;
17890;SDS011;9071;48.220;14.480;2022-09-13T04:35:13;15.93;;;10.70;;
17890;SDS011;9071;48.220;14.480;2022-09-13T04:40:18;17.07;;;11.03;;
17890;SDS011;9071;48.220;14.480;2022-09-13T04:45:22;13.83;;;10.00;;
17890;SDS011;9071;48.220;14.480;2022-09-13T04:50:26;14.83;;;10.97;;
17890;SDS011;9071;48.220;14.480;2022-09-13T04:55:28;14.53;;;10.57;;
17890;SDS011;9071;48.220;14.480;2022-09-13T05:00:30;14.47;;;11.07;;
17890;SDS011;9071;48.220;14.480;2022-09-13T05:05:34;16.37;;;11.27;;
17890;SDS011;9071;48.220;14.480;2022-09-13T05:10:36;13.43;;;10.80;;
17890;SDS011;9071;48.220;14.480;2022-09-13T05:15:38;19.40;;;12.17;;
17890;SDS011;9071;48.220;14.480;2022-09-13T05:20:41;17.37;;;12.40;;
17890;SDS011;9071;48.220;14.480;2022-09-13T05:25:43;18.63;;;13.23;;
17890;SDS011;9071;48.220;14.480;2022-09-13T05:30:53;18.77;;;12.27;;
17890;SDS011;9071;48.220;14.480;2022-09-13T05:35:57;19.10;;;11.67;;
17890;SDS011;9071;48.220;14.480;2022-09-13T05:41:00;17.90;;;11.27;;
17890;SDS011;9071;48.220;14.480;2022-09-13T05:46:04;10.33;;;8.47;;
17890;SDS011;9071;48.220;14.480;2022-09-13T05:51:09;9.57;;;7.70;;
17890;SDS011;9071;48.220;14.480;2022-09-13T05:56:14;9.43;;;7.13;;
17890;SDS011;9071;48.220;14.480;2022-09-13T06:01:17;10.43;;;5.80;;
17890;SDS011;9071;48.220;14.480;2022-09-13T06:06:22;7.93;;;5.80;;
17890;SDS011;9071;48.220;14.480;2022-09-13T06:11:24;8.10;;;6.03;;
17890;SDS011;9071;48.220;14.480;2022-09-13T06:16:26;11.30;;;5.60;;
17890;SDS011;9071;48.220;14.480;2022-09-13T06:21:30;9.87;;;6.33;;
17890;SDS011;9071;48.220;14.480;2022-09-13T06:26:32;7.83;;;6.53;;
17890;SDS011;9071;48.220;14.480;2022-09-13T06:31:34;11.67;;;8.57;;
17890;SDS011;9071;48.220;14.480;2022-09-13T06:36:39;13.05;;;9.07;;
17890;SDS011;9071;48.220;14.480;2022-09-13T06:41:41;13.25;;;8.30;;
17890;SDS011;9071;48.220;14.480;2022-09-13T06:46:43;8.60;;;6.45;;
17890;SDS011;9071;48.220;14.480;2022-09-13T06:51:46;5.35;;;4.63;;
17890;SDS011;9071;48.220;14.480;2022-09-13T06:56:48;6.53;;;4.80;;
17890;SDS011;9071;48.220;14.480;2022-09-13T07:01:51;7.72;;;5.03;;
17890;SDS011;9071;48.220;14.480;2022-09-13T07:06:54;9.35;;;5.70;;
17890;SDS011;9071;48.220;14.480;2022-09-13T07:11:56;7.20;;;5.88;;
17890;SDS011;9071;48.220;14.480;2022-09-13T07:16:58;7.70;;;5.28;;
17890;SDS011;9071;48.220;14.480;2022-09-13T07:22:01;6.32;;;4.82;;
17890;SDS011;9071;48.220;14.480;2022-09-13T07:27:04;7.13;;;4.35;;
17890;SDS011;9071;48.220;14.480;2022-09-13T07:32:06;6.10;;;4.13;;
17890;SDS011;9071;48.220;14.480;2022-09-13T07:37:09;6.70;;;4.50;;
17890;SDS011;9071;48.220;14.480;2022-09-13T07:42:11;4.75;;;4.25;;
17890;SDS011;9071;48.220;14.480;2022-09-13T07:47:13;5.70;;;4.72;;
17890;SDS011;9071;48.220;14.480;2022-09-13T07:52:17;6.72;;;4.72;;
17890;SDS011;9071;48.220;14.480;2022-09-13T07:57:19;6.65;;;4.90;;
17890;SDS011;9071;48.220;14.480;2022-09-13T08:02:21;5.75;;;4.78;;
17890;SDS011;9071;48.220;14.480;2022-09-13T08:07:24;5.38;;;4.88;;
17890;SDS011;9071;48.220;14.480;2022-09-13T08:12:26;8.95;;;5.93;;
17890;SDS011;9071;48.220;14.480;2022-09-13T08:17:29;8.73;;;5.38;;
17890;SDS011;9071;48.220;14.480;2022-09-13T08:22:32;9.77;;;5.88;;
17890;SDS011;9071;48.220;14.480;2022-09-13T08:27:34;10.15;;;5.72;;
17890;SDS011;9071;48.220;14.480;2022-09-13T08:32:36;9.52;;;5.70;;
17890;SDS011;9071;48.220;14.480;2022-09-13T08:37:39;9.55;;;5.82;;
17890;SDS011;9071;48.220;14.480;2022-09-13T08:42:45;9.43;;;6.00;;
17890;SDS011;9071;48.220;14.480;2022-09-13T08:47:53;11.55;;;6.30;;
17890;SDS011;9071;48.220;14.480;2022-09-13T08:53:03;14.00;;;5.95;;
17890;SDS011;9071;48.220;14.480;2022-09-13T08:58:29;13.77;;;6.32;;
17890;SDS011;9071;48.220;14.480;2022-09-13T09:03:41;11.48;;;6.65;;
17890;SDS011;9071;48.220;14.480;2022-09-13T09:08:48;10.45;;;6.30;;
17890;SDS011;9071;48.220;14.480;2022-09-13T09:13:56;15.85;;;6.25;;
17890;SDS011;9071;48.220;14.480;2022-09-13T09:19:07;9.98;;;5.63;;
17890;SDS011;9071;48.220;14.480;2022-09-13T09:24:20;9.27;;;5.60;;
17890;SDS011;9071;48.220;14.480;2022-09-13T09:29:24;8.93;;;5.30;;
17890;SDS011;9071;48.220;14.480;2022-09-13T09:34:32;7.72;;;5.70;;
17890;SDS011;9071;48.220;14.480;2022-09-13T09:39:45;7.32;;;5.53;;
17890;SDS011;9071;48.220;14.480;2022-09-13T09:44:49;8.00;;;5.55;;
17890;SDS011;9071;48.220;14.480;2022-09-13T09:49:54;7.50;;;5.63;;
17890;SDS011;9071;48.220;14.480;2022-09-13T09:55:15;5.35;;;4.75;;
17890;SDS011;9071;48.220;14.480;2022-09-13T10:00:25;8.43;;;5.15;;
17890;SDS011;9071;48.220;14.480;2022-09-13T10:05:29;5.25;;;4.70;;
17890;SDS011;9071;48.220;14.480;2022-09-13T10:10:36;6.75;;;4.85;;
17890;SDS011;9071;48.220;14.480;2022-09-13T10:15:50;5.13;;;4.20;;
17890;SDS011;9071;48.220;14.480;2022-09-13T10:21:01;5.88;;;4.50;;
17890;SDS011;9071;48.220;14.480;2022-09-13T10:26:08;5.18;;;4.40;;
17890;SDS011;9071;48.220;14.480;2022-09-13T10:31:12;5.72;;;4.70;;
17890;SDS011;9071;48.220;14.480;2022-09-13T10:36:17;8.75;;;4.43;;
17890;SDS011;9071;48.220;14.480;2022-09-13T10:41:25;6.43;;;4.50;;
17890;SDS011;9071;48.220;14.480;2022-09-13T10:46:30;6.57;;;4.68;;
17890;SDS011;9071;48.220;14.480;2022-09-13T10:51:34;6.05;;;4.30;;
17890;SDS011;9071;48.220;14.480;2022-09-13T10:56:39;4.70;;;4.07;;
17890;SDS011;9071;48.220;14.480;2022-09-13T11:01:43;4.55;;;3.95;;
17890;SDS011;9071;48.220;14.480;2022-09-13T11:06:59;6.30;;;3.63;;
17890;SDS011;9071;48.220;14.480;2022-09-13T11:12:13;6.70;;;3.90;;
17890;SDS011;9071;48.220;14.480;2022-09-13T11:17:30;6.03;;;4.30;;
17890;SDS011;9071;48.220;14.480;2022-09-13T11:22:58;10.13;;;3.90;;
17890;SDS011;9071;48.220;14.480;2022-09-13T11:28:17;10.52;;;3.97;;
17890;SDS011;9071;48.220;14.480;2022-09-13T11:33:27;8.93;;;3.78;;
17890;SDS011;9071;48.220;14.480;2022-09-13T11:38:42;4.45;;;3.35;;
17890;SDS011;9071;48.220;14.480;2022-09-13T11:44:02;8.07;;;3.67;;
17890;SDS011;9071;48.220;14.480;2022-09-13T11:55:01;7.32;;;3.03;;
17890;SDS011;9071;48.220;14.480;2022-09-13T12:00:17;5.75;;;3.30;;
17890;SDS011;9071;48.220;14.480;2022-09-13T12:05:22;6.00;;;3.17;;
17890;SDS011;9071;48.220;14.480;2022-09-13T12:10:28;10.30;;;3.22;;
17890;SDS011;9071;48.220;14.480;2022-09-13T12:15:36;5.55;;;3.05;;
17890;SDS011;9071;48.220;14.480;2022-09-13T12:20:41;5.20;;;2.85;;
17890;SDS011;9071;48.220;14.480;2022-09-13T12:25:48;10.65;;;3.17;;
17890;SDS011;9071;48.220;14.480;2022-09-13T12:30:59;5.97;;;3.58;;
17890;SDS011;9071;48.220;14.480;2022-09-13T12:41:38;6.07;;;2.80;;
17890;SDS011;9071;48.220;14.480;2022-09-13T12:47:00;6.63;;;2.50;;
17890;SDS011;9071;48.220;14.480;2022-09-13T12:52:22;2.95;;;2.67;;
17890;SDS011;9071;48.220;14.480;2022-09-13T12:57:33;4.93;;;2.63;;
17890;SDS011;9071;48.220;14.480;2022-09-13T13:02:43;4.45;;;2.60;;
17890;SDS011;9071;48.220;14.480;2022-09-13T13:07:53;3.95;;;2.40;;
17890;SDS011;9071;48.220;14.480;2022-09-13T13:13:11;2.40;;;2.20;;
17890;SDS011;9071;48.220;14.480;2022-09-13T13:18:23;4.03;;;1.98;;
17890;SDS011;9071;48.220;14.480;2022-09-13T13:23:28;2.50;;;2.30;;
17890;SDS011;9071;48.220;14.480;2022-09-13T13:28:48;3.42;;;2.45;;
17890;SDS011;9071;48.220;14.480;2022-09-13T13:34:29;2.75;;;2.30;;
17890;SDS011;9071;48.220;14.480;2022-09-13T13:39:43;2.15;;;1.95;;
17890;SDS011;9071;48.220;14.480;2022-09-13T13:50:19;3.33;;;2.25;;
17890;SDS011;9071;48.220;14.480;2022-09-13T13:55:27;2.55;;;2.35;;
17890;SDS011;9071;48.220;14.480;2022-09-13T14:00:33;3.10;;;2.42;;
17890;SDS011;9071;48.220;14.480;2022-09-13T14:05:38;3.28;;;2.50;;
17890;SDS011;9071;48.220;14.480;2022-09-13T14:10:48;2.90;;;2.60;;
17890;SDS011;9071;48.220;14.480;2022-09-13T14:15:59;3.25;;;2.40;;
17890;SDS011;9071;48.220;14.480;2022-09-13T14:21:18;3.30;;;2.63;;
17890;SDS011;9071;48.220;14.480;2022-09-13T14:26:23;4.00;;;2.20;;
17890;SDS011;9071;48.220;14.480;2022-09-13T14:31:25;3.42;;;2.63;;
17890;SDS011;9071;48.220;14.480;2022-09-13T14:36:28;3.50;;;2.55;;
17890;SDS011;9071;48.220;14.480;2022-09-13T14:41:31;4.90;;;2.30;;
17890;SDS011;9071;48.220;14.480;2022-09-13T14:46:36;3.00;;;2.67;;
17890;SDS011;9071;48.220;14.480;2022-09-13T14:51:43;3.08;;;2.78;;
17890;SDS011;9071;48.220;14.480;2022-09-13T14:56:49;4.63;;;2.40;;
17890;SDS011;9071;48.220;14.480;2022-09-13T15:01:54;4.13;;;2.53;;
17890;SDS011;9071;48.220;14.480;2022-09-13T15:07:15;3.47;;;2.38;;
17890;SDS011;9071;48.220;14.480;2022-09-13T15:12:22;2.85;;;2.55;;
17890;SDS011;9071;48.220;14.480;2022-09-13T15:17:26;2.50;;;2.30;;
17890;SDS011;9071;48.220;14.480;2022-09-13T15:22:30;4.30;;;2.47;;
17890;SDS011;9071;48.220;14.480;2022-09-13T15:27:41;2.28;;;2.08;;
17890;SDS011;9071;48.220;14.480;2022-09-13T15:32:45;3.97;;;2.40;;
17890;SDS011;9071;48.220;14.480;2022-09-13T15:37:57;3.80;;;2.70;;
17890;SDS011;9071;48.220;14.480;2022-09-13T15:43:00;7.28;;;5.00;;
17890;SDS011;9071;48.220;14.480;2022-09-13T15:48:02;8.40;;;5.25;;
17890;SDS011;9071;48.220;14.480;2022-09-13T15:53:09;7.85;;;5.32;;
17890;SDS011;9071;48.220;14.480;2022-09-13T15:58:12;8.15;;;5.45;;
17890;SDS011;9071;48.220;14.480;2022-09-13T16:03:14;9.52;;;5.68;;
17890;SDS011;9071;48.220;14.480;2022-09-13T16:08:18;10.93;;;5.75;;
17890;SDS011;9071;48.220;14.480;2022-09-13T16:13:20;8.52;;;4.32;;
17890;SDS011;9071;48.220;14.480;2022-09-13T16:18:22;14.98;;;5.85;;
17890;SDS011;9071;48.220;14.480;2022-09-13T16:23:26;12.95;;;4.40;;
17890;SDS011;9071;48.220;14.480;2022-09-13T16:28:28;4.93;;;4.18;;
17890;SDS011;9071;48.220;14.480;2022-09-13T16:33:30;6.57;;;3.90;;
17890;SDS011;9071;48.220;14.480;2022-09-13T16:38:34;6.28;;;3.75;;
17890;SDS011;9071;48.220;14.480;2022-09-13T16:43:36;11.07;;;4.20;;
17890;SDS011;9071;48.220;14.480;2022-09-13T16:48:38;7.95;;;4.70;;
17890;SDS011;9071;48.220;14.480;2022-09-13T16:53:42;8.98;;;4.78;;
17890;SDS011;9071;48.220;14.480;2022-09-13T16:58:44;9.68;;;4.43;;
17890;SDS011;9071;48.220;14.480;2022-09-13T17:03:46;11.48;;;5.38;;
17890;SDS011;9071;48.220;14.480;2022-09-13T17:08:51;10.05;;;4.80;;
17890;SDS011;9071;48.220;14.480;2022-09-13T17:13:54;10.75;;;5.63;;
17890;SDS011;9071;48.220;14.480;2022-09-13T17:18:58;10.10;;;5.00;;
17890;SDS011;9071;48.220;14.480;2022-09-13T17:24:04;8.88;;;5.45;;
17890;SDS011;9071;48.220;14.480;2022-09-13T17:29:06;13.13;;;5.47;;
17890;SDS011;9071;48.220;14.480;2022-09-13T17:34:08;8.20;;;6.35;;
17890;SDS011;9071;48.220;14.480;2022-09-13T17:39:12;11.80;;;7.22;;
17890;SDS011;9071;48.220;14.480;2022-09-13T17:44:14;13.30;;;6.72;;
17890;SDS011;9071;48.220;14.480;2022-09-13T17:49:16;10.25;;;6.40;;
17890;SDS011;9071;48.220;14.480;2022-09-13T17:54:19;16.88;;;6.93;;
17890;SDS011;9071;48.220;14.480;2022-09-13T17:59:21;17.95;;;6.50;;
17890;SDS011;9071;48.220;14.480;2022-09-13T18:04:24;16.67;;;7.22;;
17890;SDS011;9071;48.220;14.480;2022-09-13T18:09:27;12.68;;;5.78;;
17890;SDS011;9071;48.220;14.480;2022-09-13T18:14:29;12.80;;;5.57;;
17890;SDS011;9071;48.220;14.480;2022-09-13T18:19:33;10.52;;;5.80;;
17890;SDS011;9071;48.220;14.480;2022-09-13T18:24:37;12.07;;;6.00;;
17890;SDS011;9071;48.220;14.480;2022-09-13T18:29:39;10.02;;;6.00;;
17890;SDS011;9071;48.220;14.480;2022-09-13T18:34:41;7.75;;;5.63;;
17890;SDS011;9071;48.220;14.480;2022-09-13T18:39:45;12.23;;;7.15;;
17890;SDS011;9071;48.220;14.480;2022-09-13T18:44:47;8.25;;;6.15;;
17890;SDS011;9071;48.220;14.480;2022-09-13T18:49:50;10.52;;;6.28;;
17890;SDS011;9071;48.220;14.480;2022-09-13T18:54:53;10.52;;;6.55;;
17890;SDS011;9071;48.220;14.480;2022-09-13T18:59:55;9.90;;;6.43;;
17890;SDS011;9071;48.220;14.480;2022-09-13T19:04:58;14.18;;;6.82;;
17890;SDS011;9071;48.220;14.480;2022-09-13T19:10:02;9.45;;;6.05;;
17890;SDS011;9071;48.220;14.480;2022-09-13T19:15:04;11.73;;;6.88;;
17890;SDS011;9071;48.220;14.480;2022-09-13T19:20:07;12.60;;;6.78;;
17890;SDS011;9071;48.220;14.480;2022-09-13T19:25:11;11.25;;;7.35;;
17890;SDS011;9071;48.220;14.480;2022-09-13T19:30:13;7.03;;;6.18;;
17890;SDS011;9071;48.220;14.480;2022-09-13T19:35:15;12.23;;;7.72;;
17890;SDS011;9071;48.220;14.480;2022-09-13T19:40:19;13.10;;;7.82;;
17890;SDS011;9071;48.220;14.480;2022-09-13T19:45:22;11.55;;;7.28;;
17890;SDS011;9071;48.220;14.480;2022-09-13T19:50:24;10.27;;;7.32;;
17890;SDS011;9071;48.220;14.480;2022-09-13T19:55:28;11.88;;;7.53;;
17890;SDS011;9071;48.220;14.480;2022-09-13T20:00:32;12.02;;;8.57;;
17890;SDS011;9071;48.220;14.480;2022-09-13T20:05:34;10.40;;;7.50;;
17890;SDS011;9071;48.220;14.480;2022-09-13T20:10:38;11.48;;;7.40;;
17890;SDS011;9071;48.220;14.480;2022-09-13T20:15:40;12.93;;;7.38;;
17890;SDS011;9071;48.220;14.480;2022-09-13T20:20:43;11.77;;;7.70;;
17890;SDS011;9071;48.220;14.480;2022-09-13T20:25:48;11.90;;;8.32;;
17890;SDS011;9071;48.220;14.480;2022-09-13T20:30:51;11.32;;;8.18;;
17890;SDS011;9071;48.220;14.480;2022-09-13T20:35:54;10.57;;;7.90;;
17890;SDS011;9071;48.220;14.480;2022-09-13T20:41:01;13.02;;;8.25;;
17890;SDS011;9071;48.220;14.480;2022-09-13T20:46:06;13.68;;;7.72;;
17890;SDS011;9071;48.220;14.480;2022-09-13T20:51:12;13.00;;;8.68;;
17890;SDS011;9071;48.220;14.480;2022-09-13T20:56:17;14.23;;;8.55;;
17890;SDS011;9071;48.220;14.480;2022-09-13T21:01:20;11.10;;;7.50;;
17890;SDS011;9071;48.220;14.480;2022-09-13T21:06:23;14.32;;;7.93;;
17890;SDS011;9071;48.220;14.480;2022-09-13T21:11:28;14.15;;;8.10;;
17890;SDS011;9071;48.220;14.480;2022-09-13T21:16:33;14.13;;;8.07;;
17890;SDS011;9071;48.220;14.480;2022-09-13T21:21:39;14.57;;;9.05;;
17890;SDS011;9071;48.220;14.480;2022-09-13T21:26:43;16.20;;;9.50;;
17890;SDS011;9071;48.220;14.480;2022-09-13T21:31:45;17.15;;;7.95;;
17890;SDS011;9071;48.220;14.480;2022-09-13T21:36:47;17.75;;;9.20;;
17890;SDS011;9071;48.220;14.480;2022-09-13T21:41:51;15.40;;;8.27;;
17890;SDS011;9071;48.220;14.480;2022-09-13T21:46:53;9.88;;;7.63;;
17890;SDS011;9071;48.220;14.480;2022-09-13T21:51:55;15.82;;;8.68;;
17890;SDS011;9071;48.220;14.480;2022-09-13T21:56:58;16.15;;;8.07;;
17890;SDS011;9071;48.220;14.480;2022-09-13T22:02:01;13.55;;;8.50;;
17890;SDS011;9071;48.220;14.480;2022-09-13T22:07:03;13.25;;;8.82;;
17890;SDS011;9071;48.220;14.480;2022-09-13T22:12:06;11.60;;;8.25;;
17890;SDS011;9071;48.220;14.480;2022-09-13T22:17:08;15.93;;;7.85;;
17890;SDS011;9071;48.220;14.480;2022-09-13T22:22:10;8.73;;;7.50;;
17890;SDS011;9071;48.220;14.480;2022-09-13T22:27:14;14.20;;;8.30;;
17890;SDS011;9071;48.220;14.480;2022-09-13T22:32:16;15.18;;;8.20;;
17890;SDS011;9071;48.220;14.480;2022-09-13T22:37:18;10.00;;;8.15;;
17890;SDS011;9071;48.220;14.480;2022-09-13T22:42:21;13.25;;;8.52;;
17890;SDS011;9071;48.220;14.480;2022-09-13T22:47:23;11.07;;;7.78;;
17890;SDS011;9071;48.220;14.480;2022-09-13T22:52:25;12.07;;;9.10;;
17890;SDS011;9071;48.220;14.480;2022-09-13T22:57:29;13.88;;;8.80;;
17890;SDS011;9071;48.220;14.480;2022-09-13T23:02:31;13.02;;;8.73;;
17890;SDS011;9071;48.220;14.480;2022-09-13T23:07:33;12.25;;;8.50;;
17890;SDS011;9071;48.220;14.480;2022-09-13T23:12:36;12.00;;;9.77;;
17890;SDS011;9071;48.220;14.480;2022-09-13T23:17:38;11.82;;;9.00;;
17890;SDS011;9071;48.220;14.480;2022-09-13T23:22:40;12.73;;;9.18;;
17890;SDS011;9071;48.220;14.480;2022-09-13T23:27:44;13.45;;;9.05;;
17890;SDS011;9071;48.220;14.480;2022-09-13T23:32:46;14.68;;;9.30;;
17890;SDS011;9071;48.220;14.480;2022-09-13T23:37:49;17.50;;;10.45;;
17890;SDS011;9071;48.220;14.480;2022-09-13T23:42:52;12.95;;;10.40;;
17890;SDS011;9071;48.220;14.480;2022-09-13T23:47:54;18.85;;;11.05;;
17890;SDS011;9071;48.220;14.480;2022-09-13T23:52:56;13.52;;;10.68;;
17890;SDS011;9071;48.220;14.480;2022-09-13T23:58:00;20.15;;;12.30;;
